N928CJ KOWB-KDCA
Flight info
| Callsign | N928CJ |
|---|---|
| Flight time | 1h 7m |
| Altitude | 45000 |
| Route | IIU J78 HVQ TRUPS5 |
| Aircraft | C700/M-SBDGHM1RWXY/LB2 |
Departure
| Time | 2026-05-06 02:36 |
|---|---|
| Airport | Owensboro Daviess County Airport (KOWB) |
Arrival
| Time | 2026-05-06 03:43 |
|---|---|
| Airport | Ronald Reagan Washington National Airport (KDCA) |
| Time | Latitude | Longitude | Altitude | Speed | Heading |
|---|---|---|---|---|---|
| 2026-05-06 02:13 | 37.74570 | -87.16291 | 406 ft | 0 kts | 171° |
| 2026-05-06 02:22 | 37.74576 | -87.16291 | 406 ft | 2 kts | 204° |
| 2026-05-06 02:22 | 37.74584 | -87.16279 | 408 ft | 2 kts | 278° |
| 2026-05-06 02:23 | 37.74584 | -87.16274 | 408 ft | 0 kts | 302° |
| 2026-05-06 02:24 | 37.74586 | -87.16278 | 408 ft | 7 kts | 302° |
| 2026-05-06 02:24 | 37.74579 | -87.16359 | 406 ft | 11 kts | 231° |
| 2026-05-06 02:24 | 37.74506 | -87.16417 | 409 ft | 13 kts | 219° |
| 2026-05-06 02:24 | 37.74447 | -87.16500 | 411 ft | 13 kts | 194° |
| 2026-05-06 02:25 | 37.74388 | -87.16501 | 408 ft | 0 kts | 176° |
| 2026-05-06 02:25 | 37.74339 | -87.16514 | 412 ft | 13 kts | 201° |
| 2026-05-06 02:25 | 37.74217 | -87.16562 | 410 ft | 22 kts | 180° |
| 2026-05-06 02:26 | 37.74118 | -87.16558 | 409 ft | 1 kts | 178° |
| 2026-05-06 02:26 | 37.74063 | -87.16555 | 408 ft | 14 kts | 177° |
| 2026-05-06 02:26 | 37.73935 | -87.16549 | 406 ft | 22 kts | 178° |
| 2026-05-06 02:26 | 37.73765 | -87.16540 | 402 ft | 27 kts | 177° |
| 2026-05-06 02:27 | 37.73572 | -87.16530 | 401 ft | 29 kts | 178° |
| 2026-05-06 02:27 | 37.73363 | -87.16520 | 401 ft | 31 kts | 178° |
| 2026-05-06 02:27 | 37.73150 | -87.16509 | 406 ft | 31 kts | 178° |
| 2026-05-06 02:27 | 37.72930 | -87.16497 | 405 ft | 32 kts | 177° |
| 2026-05-06 02:28 | 37.72775 | -87.16488 | 406 ft | 21 kts | 178° |
| 2026-05-06 02:28 | 37.72713 | -87.16552 | 404 ft | 0 kts | 262° |
| 2026-05-06 02:35 | 37.72712 | -87.16618 | 404 ft | 13 kts | 283° |
| 2026-05-06 02:35 | 37.72812 | -87.16675 | 403 ft | 21 kts | 358° |
| 2026-05-06 02:36 | 37.73228 | -87.16696 | 402 ft | 109 kts | 358° |
| 2026-05-06 02:36 | 37.74235 | -87.16756 | 823 ft | 164 kts | 356° |
| 2026-05-06 02:36 | 37.75416 | -87.16847 | 1934 ft | 170 kts | 356° |
| 2026-05-06 02:36 | 37.76573 | -87.16964 | 2951 ft | 179 kts | 353° |
| 2026-05-06 02:37 | 37.77981 | -87.17121 | 3296 ft | 220 kts | 353° |
| 2026-05-06 02:37 | 37.79402 | -87.17294 | 4710 ft | 210 kts | 348° |
| 2026-05-06 02:37 | 37.80986 | -87.17519 | 5183 ft | 236 kts | 347° |
| 2026-05-06 02:37 | 37.82750 | -87.17798 | 5758 ft | 274 kts | 346° |
| 2026-05-06 02:38 | 37.84727 | -87.17648 | 6262 ft | 305 kts | 15° |
| 2026-05-06 02:38 | 37.86338 | -87.15955 | 8100 ft | 306 kts | 52° |
| 2026-05-06 02:38 | 37.87226 | -87.13421 | 9710 ft | 325 kts | 76° |
| 2026-05-06 02:38 | 37.87591 | -87.10524 | 11052 ft | 346 kts | 85° |
| 2026-05-06 02:39 | 37.87872 | -87.07393 | 12388 ft | 365 kts | 84° |
| 2026-05-06 02:39 | 37.88322 | -87.04194 | 14044 ft | 375 kts | 78° |
| 2026-05-06 02:39 | 37.88910 | -87.00972 | 15425 ft | 386 kts | 78° |
| 2026-05-06 02:39 | 37.89479 | -86.97600 | 16819 ft | 397 kts | 80° |
| 2026-05-06 02:40 | 37.89984 | -86.94116 | 18159 ft | 408 kts | 82° |
| 2026-05-06 02:40 | 37.90512 | -86.90533 | 19316 ft | 418 kts | 80° |
| 2026-05-06 02:40 | 37.91093 | -86.86889 | 20520 ft | 426 kts | 79° |
| 2026-05-06 02:40 | 37.91686 | -86.83175 | 21713 ft | 434 kts | 79° |
| 2026-05-06 02:41 | 37.92266 | -86.79388 | 22801 ft | 443 kts | 79° |
| 2026-05-06 02:41 | 37.92851 | -86.75518 | 23782 ft | 452 kts | 79° |
| 2026-05-06 02:41 | 37.93457 | -86.71578 | 24717 ft | 460 kts | 78° |
| 2026-05-06 02:41 | 37.94079 | -86.67568 | 25658 ft | 468 kts | 78° |
| 2026-05-06 02:42 | 37.94696 | -86.63541 | 26516 ft | 476 kts | 78° |
| 2026-05-06 02:42 | 37.95327 | -86.59382 | 27391 ft | 484 kts | 77° |
| 2026-05-06 02:42 | 37.95968 | -86.55161 | 28242 ft | 492 kts | 77° |
| 2026-05-06 02:42 | 37.96622 | -86.50871 | 29119 ft | 499 kts | 76° |
| 2026-05-06 02:43 | 37.97283 | -86.46516 | 29975 ft | 507 kts | 76° |
| 2026-05-06 02:43 | 37.97949 | -86.42099 | 30691 ft | 514 kts | 76° |
| 2026-05-06 02:43 | 37.98623 | -86.37615 | 31386 ft | 521 kts | 76° |
| 2026-05-06 02:43 | 37.99305 | -86.33079 | 32056 ft | 527 kts | 76° |
| 2026-05-06 02:44 | 37.99994 | -86.28485 | 32703 ft | 533 kts | 76° |
| 2026-05-06 02:44 | 38.00678 | -86.23904 | 33341 ft | 540 kts | 76° |
| 2026-05-06 02:44 | 38.01378 | -86.19202 | 33949 ft | 546 kts | 76° |
| 2026-05-06 02:44 | 38.02084 | -86.14447 | 34499 ft | 551 kts | 76° |
| 2026-05-06 02:45 | 38.02795 | -86.09649 | 35000 ft | 557 kts | 76° |
| 2026-05-06 02:45 | 38.03513 | -86.04789 | 35471 ft | 563 kts | 76° |
| 2026-05-06 02:45 | 38.04231 | -85.99909 | 36086 ft | 564 kts | 76° |
| 2026-05-06 02:45 | 38.04949 | -85.95010 | 36659 ft | 565 kts | 75° |
| 2026-05-06 02:46 | 38.05667 | -85.90104 | 37175 ft | 567 kts | 75° |
| 2026-05-06 02:46 | 38.06386 | -85.85181 | 37646 ft | 568 kts | 75° |
| 2026-05-06 02:46 | 38.07094 | -85.80310 | 38109 ft | 570 kts | 75° |
| 2026-05-06 02:46 | 38.07812 | -85.75356 | 38532 ft | 571 kts | 75° |
| 2026-05-06 02:47 | 38.08528 | -85.70399 | 38897 ft | 571 kts | 75° |
| 2026-05-06 02:47 | 38.09241 | -85.65452 | 39342 ft | 569 kts | 75° |
| 2026-05-06 02:47 | 38.09948 | -85.60524 | 39786 ft | 566 kts | 75° |
| 2026-05-06 02:47 | 38.10538 | -85.55584 | 40182 ft | 567 kts | 81° |
| 2026-05-06 02:48 | 38.10927 | -85.50615 | 40599 ft | 565 kts | 81° |
| 2026-05-06 02:48 | 38.11312 | -85.45663 | 40984 ft | 562 kts | 81° |
| 2026-05-06 02:48 | 38.11710 | -85.40739 | 41356 ft | 560 kts | 81° |
| 2026-05-06 02:48 | 38.12109 | -85.35846 | 41823 ft | 555 kts | 81° |
| 2026-05-06 02:49 | 38.12492 | -85.30981 | 42164 ft | 552 kts | 81° |
| 2026-05-06 02:49 | 38.12862 | -85.26198 | 42465 ft | 551 kts | 81° |
| 2026-05-06 02:49 | 38.13240 | -85.21367 | 42754 ft | 549 kts | 81° |
| 2026-05-06 02:49 | 38.13618 | -85.16546 | 43042 ft | 548 kts | 81° |
| 2026-05-06 02:50 | 38.13991 | -85.11741 | 43309 ft | 546 kts | 81° |
| 2026-05-06 02:50 | 38.14358 | -85.06943 | 43569 ft | 545 kts | 81° |
| 2026-05-06 02:50 | 38.14724 | -85.02158 | 43810 ft | 544 kts | 81° |
| 2026-05-06 02:50 | 38.15088 | -84.97389 | 44056 ft | 542 kts | 81° |
| 2026-05-06 02:51 | 38.15450 | -84.92627 | 44263 ft | 541 kts | 81° |
| 2026-05-06 02:51 | 38.15807 | -84.87876 | 44449 ft | 540 kts | 81° |
| 2026-05-06 02:51 | 38.16162 | -84.83130 | 44608 ft | 539 kts | 81° |
| 2026-05-06 02:51 | 38.16516 | -84.78386 | 44725 ft | 539 kts | 81° |
| 2026-05-06 02:52 | 38.16863 | -84.73704 | 44830 ft | 540 kts | 81° |
| 2026-05-06 02:52 | 38.17564 | -84.64170 | 44840 ft | 545 kts | 81° |
| 2026-05-06 02:53 | 38.18264 | -84.54534 | 44849 ft | 549 kts | 81° |
| 2026-05-06 02:53 | 38.18962 | -84.44826 | 44851 ft | 554 kts | 81° |
| 2026-05-06 02:54 | 38.19657 | -84.35033 | 44843 ft | 558 kts | 82° |
| 2026-05-06 02:54 | 38.20344 | -84.25233 | 44856 ft | 561 kts | 82° |
| 2026-05-06 02:55 | 38.21022 | -84.15412 | 44863 ft | 555 kts | 82° |
| 2026-05-06 02:55 | 38.21687 | -84.05686 | 44861 ft | 550 kts | 82° |
| 2026-05-06 02:56 | 38.22343 | -83.95977 | 44862 ft | 553 kts | 82° |
| 2026-05-06 02:56 | 38.22994 | -83.86210 | 44858 ft | 555 kts | 82° |
| 2026-05-06 02:57 | 38.23636 | -83.76437 | 44829 ft | 554 kts | 82° |
| 2026-05-06 02:57 | 38.24266 | -83.66747 | 44832 ft | 552 kts | 82° |
| 2026-05-06 02:58 | 38.24890 | -83.57018 | 44827 ft | 551 kts | 82° |
| 2026-05-06 02:58 | 38.25505 | -83.47306 | 44841 ft | 550 kts | 82° |
| 2026-05-06 02:59 | 38.26109 | -83.37621 | 44858 ft | 549 kts | 82° |
| 2026-05-06 02:59 | 38.26705 | -83.27961 | 44857 ft | 547 kts | 82° |
| 2026-05-06 03:00 | 38.27289 | -83.18366 | 44856 ft | 548 kts | 82° |
| 2026-05-06 03:00 | 38.27870 | -83.08676 | 44863 ft | 550 kts | 82° |
| 2026-05-06 03:01 | 38.28445 | -82.98942 | 44860 ft | 552 kts | 82° |
| 2026-05-06 03:01 | 38.29013 | -82.89201 | 44865 ft | 551 kts | 82° |
| 2026-05-06 03:02 | 38.29566 | -82.79565 | 44868 ft | 549 kts | 82° |
| 2026-05-06 03:02 | 38.30114 | -82.69893 | 44874 ft | 547 kts | 82° |
| 2026-05-06 03:03 | 38.30652 | -82.60254 | 44874 ft | 545 kts | 82° |
| 2026-05-06 03:03 | 38.31182 | -82.50636 | 44873 ft | 544 kts | 82° |
| 2026-05-06 03:04 | 38.31703 | -82.41022 | 44849 ft | 545 kts | 82° |
| 2026-05-06 03:04 | 38.32215 | -82.31400 | 44847 ft | 544 kts | 83° |
| 2026-05-06 03:05 | 38.32719 | -82.21814 | 44845 ft | 542 kts | 83° |
| 2026-05-06 03:05 | 38.33210 | -82.12316 | 44842 ft | 540 kts | 83° |
| 2026-05-06 03:06 | 38.33695 | -82.02788 | 44842 ft | 538 kts | 83° |
| 2026-05-06 03:06 | 38.34173 | -81.93255 | 44854 ft | 541 kts | 83° |
| 2026-05-06 03:07 | 38.34645 | -81.83670 | 44862 ft | 543 kts | 83° |
| 2026-05-06 03:07 | 38.34896 | -81.74088 | 44875 ft | 548 kts | 90° |
| 2026-05-06 03:08 | 38.34573 | -81.64396 | 44875 ft | 547 kts | 90° |
| 2026-05-06 03:08 | 38.34285 | -81.54748 | 44849 ft | 542 kts | 90° |
| 2026-05-06 03:09 | 38.33965 | -81.45194 | 44858 ft | 538 kts | 90° |
| 2026-05-06 03:09 | 38.33656 | -81.35662 | 44877 ft | 540 kts | 90° |
| 2026-05-06 03:10 | 38.33328 | -81.26134 | 44861 ft | 543 kts | 90° |
| 2026-05-06 03:10 | 38.32995 | -81.16536 | 44872 ft | 541 kts | 90° |
| 2026-05-06 03:11 | 38.32655 | -81.06990 | 44870 ft | 538 kts | 91° |
| 2026-05-06 03:11 | 38.32308 | -80.97485 | 44872 ft | 537 kts | 91° |
| 2026-05-06 03:12 | 38.31957 | -80.88045 | 44877 ft | 536 kts | 91° |
| 2026-05-06 03:12 | 38.31596 | -80.78581 | 44875 ft | 534 kts | 91° |
| 2026-05-06 03:13 | 38.31239 | -80.69155 | 44879 ft | 532 kts | 91° |
| 2026-05-06 03:13 | 38.30885 | -80.59749 | 44894 ft | 531 kts | 91° |
| 2026-05-06 03:14 | 38.30516 | -80.50352 | 44905 ft | 535 kts | 91° |
| 2026-05-06 03:14 | 38.30141 | -80.40859 | 44920 ft | 538 kts | 91° |
| 2026-05-06 03:15 | 38.29752 | -80.31321 | 44931 ft | 538 kts | 91° |
| 2026-05-06 03:15 | 38.29363 | -80.21889 | 44932 ft | 537 kts | 91° |
| 2026-05-06 03:16 | 38.28962 | -80.12396 | 44839 ft | 538 kts | 91° |
| 2026-05-06 03:16 | 38.28759 | -80.07621 | 44100 ft | 542 kts | 91° |
| 2026-05-06 03:16 | 38.28552 | -80.02846 | 43388 ft | 538 kts | 91° |
| 2026-05-06 03:16 | 38.28344 | -79.98123 | 42701 ft | 532 kts | 91° |
| 2026-05-06 03:17 | 38.28138 | -79.93449 | 42007 ft | 526 kts | 90° |
| 2026-05-06 03:17 | 38.27937 | -79.88879 | 41336 ft | 522 kts | 90° |
| 2026-05-06 03:17 | 38.27732 | -79.84281 | 40651 ft | 520 kts | 90° |
| 2026-05-06 03:17 | 38.27537 | -79.79687 | 39969 ft | 521 kts | 88° |
| 2026-05-06 03:18 | 38.27709 | -79.75097 | 39286 ft | 519 kts | 77° |
| 2026-05-06 03:18 | 38.28397 | -79.70598 | 38602 ft | 518 kts | 67° |
| 2026-05-06 03:18 | 38.29575 | -79.66291 | 37871 ft | 512 kts | 58° |
| 2026-05-06 03:18 | 38.31008 | -79.62139 | 37189 ft | 514 kts | 57° |
| 2026-05-06 03:19 | 38.32430 | -79.58023 | 36520 ft | 515 kts | 58° |
| 2026-05-06 03:19 | 38.33865 | -79.53835 | 35835 ft | 517 kts | 58° |
| 2026-05-06 03:19 | 38.35295 | -79.49643 | 35158 ft | 516 kts | 58° |
| 2026-05-06 03:19 | 38.36728 | -79.45457 | 34480 ft | 516 kts | 58° |
| 2026-05-06 03:20 | 38.39594 | -79.37082 | 33070 ft | 514 kts | 59° |
| 2026-05-06 03:20 | 38.41010 | -79.32916 | 32415 ft | 511 kts | 60° |
| 2026-05-06 03:20 | 38.42308 | -79.28679 | 31714 ft | 517 kts | 67° |
| 2026-05-06 03:21 | 38.43187 | -79.24220 | 31041 ft | 519 kts | 74° |
| 2026-05-06 03:21 | 38.43958 | -79.19789 | 30371 ft | 519 kts | 75° |
| 2026-05-06 03:21 | 38.44744 | -79.15311 | 29644 ft | 513 kts | 75° |
| 2026-05-06 03:21 | 38.45513 | -79.10947 | 28983 ft | 494 kts | 75° |
| 2026-05-06 03:22 | 38.46249 | -79.06750 | 28340 ft | 476 kts | 75° |
| 2026-05-06 03:22 | 38.46957 | -79.02692 | 27752 ft | 463 kts | 75° |
| 2026-05-06 03:22 | 38.47650 | -78.98727 | 27248 ft | 455 kts | 75° |
| 2026-05-06 03:22 | 38.48340 | -78.94778 | 26733 ft | 458 kts | 75° |
| 2026-05-06 03:23 | 38.49034 | -78.90787 | 26224 ft | 463 kts | 75° |
| 2026-05-06 03:23 | 38.49721 | -78.86818 | 25708 ft | 464 kts | 75° |
| 2026-05-06 03:23 | 38.50369 | -78.82790 | 25182 ft | 461 kts | 77° |
| 2026-05-06 03:23 | 38.50995 | -78.78793 | 24666 ft | 457 kts | 76° |
| 2026-05-06 03:24 | 38.51640 | -78.74834 | 24141 ft | 454 kts | 76° |
| 2026-05-06 03:24 | 38.52268 | -78.70896 | 23635 ft | 451 kts | 77° |
| 2026-05-06 03:24 | 38.52873 | -78.66977 | 23079 ft | 448 kts | 77° |
| 2026-05-06 03:24 | 38.53474 | -78.63115 | 22610 ft | 438 kts | 77° |
| 2026-05-06 03:25 | 38.54082 | -78.59345 | 22170 ft | 430 kts | 77° |
| 2026-05-06 03:25 | 38.54688 | -78.55619 | 21739 ft | 428 kts | 77° |
| 2026-05-06 03:25 | 38.55279 | -78.51894 | 21307 ft | 427 kts | 77° |
| 2026-05-06 03:25 | 38.55854 | -78.48234 | 20886 ft | 425 kts | 78° |
| 2026-05-06 03:26 | 38.56439 | -78.44532 | 20447 ft | 424 kts | 78° |
| 2026-05-06 03:26 | 38.57024 | -78.40850 | 20014 ft | 422 kts | 78° |
| 2026-05-06 03:26 | 38.57652 | -78.37204 | 19584 ft | 418 kts | 76° |
| 2026-05-06 03:26 | 38.58283 | -78.33593 | 19161 ft | 414 kts | 77° |
| 2026-05-06 03:27 | 38.58887 | -78.30007 | 18743 ft | 411 kts | 77° |
| 2026-05-06 03:27 | 38.59499 | -78.26447 | 18322 ft | 409 kts | 77° |
| 2026-05-06 03:27 | 38.60313 | -78.23035 | 17874 ft | 406 kts | 67° |
| 2026-05-06 03:27 | 38.61407 | -78.19733 | 17511 ft | 401 kts | 66° |
| 2026-05-06 03:28 | 38.62474 | -78.16452 | 17124 ft | 399 kts | 67° |
| 2026-05-06 03:28 | 38.63525 | -78.13165 | 16724 ft | 399 kts | 67° |
| 2026-05-06 03:28 | 38.64579 | -78.09888 | 16327 ft | 397 kts | 67° |
| 2026-05-06 03:28 | 38.65635 | -78.06633 | 15928 ft | 395 kts | 67° |
| 2026-05-06 03:29 | 38.66679 | -78.03393 | 15529 ft | 392 kts | 68° |
| 2026-05-06 03:29 | 38.67709 | -78.00175 | 15119 ft | 390 kts | 68° |
| 2026-05-06 03:29 | 38.68734 | -77.96978 | 14707 ft | 387 kts | 68° |
| 2026-05-06 03:29 | 38.69742 | -77.93836 | 14320 ft | 374 kts | 68° |
| 2026-05-06 03:30 | 38.70690 | -77.90879 | 13961 ft | 355 kts | 69° |
| 2026-05-06 03:30 | 38.71604 | -77.88021 | 13596 ft | 340 kts | 69° |
| 2026-05-06 03:30 | 38.72485 | -77.85263 | 13246 ft | 331 kts | 69° |
| 2026-05-06 03:30 | 38.73504 | -77.82636 | 12895 ft | 330 kts | 57° |
| 2026-05-06 03:31 | 38.74943 | -77.80357 | 12585 ft | 330 kts | 47° |
| 2026-05-06 03:31 | 38.76482 | -77.78162 | 12248 ft | 332 kts | 47° |
| 2026-05-06 03:31 | 38.78021 | -77.75949 | 11910 ft | 332 kts | 47° |
| 2026-05-06 03:31 | 38.79545 | -77.73744 | 11574 ft | 328 kts | 47° |
| 2026-05-06 03:32 | 38.81050 | -77.71570 | 11241 ft | 324 kts | 47° |
| 2026-05-06 03:32 | 38.82526 | -77.69411 | 10906 ft | 320 kts | 49° |
| 2026-05-06 03:32 | 38.83936 | -77.67262 | 10549 ft | 318 kts | 49° |
| 2026-05-06 03:32 | 38.85380 | -77.65125 | 10205 ft | 316 kts | 48° |
| 2026-05-06 03:33 | 38.86807 | -77.62998 | 9852 ft | 313 kts | 49° |
| 2026-05-06 03:33 | 38.88212 | -77.60877 | 9485 ft | 311 kts | 49° |
| 2026-05-06 03:33 | 38.89607 | -77.58771 | 9132 ft | 308 kts | 49° |
| 2026-05-06 03:33 | 38.91004 | -77.56667 | 8799 ft | 311 kts | 49° |
| 2026-05-06 03:34 | 38.92414 | -77.54544 | 8456 ft | 312 kts | 49° |
| 2026-05-06 03:34 | 38.93793 | -77.52438 | 8114 ft | 304 kts | 52° |
| 2026-05-06 03:34 | 38.94824 | -77.50156 | 7773 ft | 297 kts | 68° |
| 2026-05-06 03:34 | 38.95623 | -77.47725 | 7443 ft | 295 kts | 69° |
| 2026-05-06 03:35 | 38.96437 | -77.45292 | 7107 ft | 297 kts | 68° |
| 2026-05-06 03:35 | 38.97259 | -77.42846 | 6765 ft | 299 kts | 69° |
| 2026-05-06 03:35 | 38.98082 | -77.40383 | 6419 ft | 300 kts | 69° |
| 2026-05-06 03:35 | 38.98900 | -77.37927 | 6063 ft | 297 kts | 69° |
| 2026-05-06 03:36 | 38.99703 | -77.35521 | 5722 ft | 289 kts | 70° |
| 2026-05-06 03:36 | 39.00484 | -77.33176 | 5398 ft | 282 kts | 70° |
| 2026-05-06 03:36 | 39.01253 | -77.30880 | 5081 ft | 277 kts | 70° |
| 2026-05-06 03:36 | 39.01945 | -77.28642 | 4778 ft | 269 kts | 78° |
| 2026-05-06 03:37 | 39.02194 | -77.26315 | 4468 ft | 258 kts | 96° |
| 2026-05-06 03:37 | 39.02002 | -77.24115 | 4172 ft | 238 kts | 112° |
| 2026-05-06 03:37 | 39.01461 | -77.22193 | 3898 ft | 221 kts | 126° |
| 2026-05-06 03:37 | 39.00673 | -77.20592 | 3661 ft | 204 kts | 140° |
| 2026-05-06 03:38 | 38.99726 | -77.19317 | 3431 ft | 192 kts | 149° |
| 2026-05-06 03:38 | 38.98765 | -77.18173 | 3240 ft | 181 kts | 148° |
| 2026-05-06 03:38 | 38.97921 | -77.17050 | 3007 ft | 167 kts | 148° |
| 2026-05-06 03:38 | 38.97116 | -77.16057 | 2816 ft | 156 kts | 150° |
| 2026-05-06 03:39 | 38.96350 | -77.15128 | 2635 ft | 150 kts | 152° |
| 2026-05-06 03:39 | 38.95562 | -77.14267 | 2466 ft | 150 kts | 154° |
| 2026-05-06 03:39 | 38.94762 | -77.13390 | 2294 ft | 152 kts | 152° |
| 2026-05-06 03:39 | 38.93964 | -77.12504 | 2115 ft | 152 kts | 152° |
| 2026-05-06 03:40 | 38.93145 | -77.11629 | 1931 ft | 155 kts | 154° |
| 2026-05-06 03:40 | 38.92385 | -77.10799 | 1841 ft | 126 kts | 152° |
| 2026-05-06 03:40 | 38.91808 | -77.10015 | 1515 ft | 117 kts | 148° |
| 2026-05-06 03:40 | 38.91257 | -77.09241 | 1204 ft | 118 kts | 141° |
| 2026-05-06 03:41 | 38.90785 | -77.08357 | 1024 ft | 123 kts | 129° |
| 2026-05-06 03:41 | 38.90400 | -77.07403 | 953 ft | 120 kts | 132° |
| 2026-05-06 03:41 | 38.89896 | -77.06596 | 916 ft | 113 kts | 141° |
| 2026-05-06 03:41 | 38.89330 | -77.05873 | 749 ft | 118 kts | 143° |
| 2026-05-06 03:42 | 38.88707 | -77.05205 | 628 ft | 115 kts | 144° |
| 2026-05-06 03:42 | 38.88089 | -77.04556 | 488 ft | 110 kts | 148° |
| 2026-05-06 03:42 | 38.87425 | -77.04108 | 332 ft | 108 kts | 163° |
| 2026-05-06 03:42 | 38.86698 | -77.03922 | 168 ft | 109 kts | 174° |
| 2026-05-06 03:43 | 38.85940 | -77.03851 | 48 ft | 108 kts | 176° |
| 2026-05-06 03:43 | 38.85253 | -77.03778 | 17 ft | 83 kts | 174° |
| 2026-05-06 03:43 | 38.84836 | -77.03744 | 18 ft | 33 kts | 176° |
| 2026-05-06 03:43 | 38.84811 | -77.03742 | 18 ft | 3 kts | 177° |
| 2026-05-06 03:44 | 38.84722 | -77.03775 | 19 ft | 23 kts | 205° |
| 2026-05-06 03:44 | 38.84685 | -77.03841 | 20 ft | 10 kts | 280° |
| 2026-05-06 03:44 | 38.84765 | -77.03883 | 22 ft | 17 kts | 6° |
| 2026-05-06 03:44 | 38.84906 | -77.03895 | 15 ft | 24 kts | 354° |
| 2026-05-06 03:45 | 38.85086 | -77.03919 | 16 ft | 28 kts | 355° |
| 2026-05-06 03:45 | 38.85230 | -77.03934 | 16 ft | 9 kts | 355° |
| 2026-05-06 03:45 | 38.85273 | -77.03939 | 16 ft | 0 kts | 355° |
| 2026-05-06 03:46 | 38.85310 | -77.03943 | 16 ft | 13 kts | 354° |
| 2026-05-06 03:46 | 38.85435 | -77.03957 | 19 ft | 21 kts | 355° |
| 2026-05-06 03:46 | 38.85528 | -77.04039 | 21 ft | 18 kts | 277° |
| 2026-05-06 03:46 | 38.85526 | -77.04101 | 22 ft | 0 kts | 263° |
| 2026-05-06 03:47 | 38.85525 | -77.04105 | 22 ft | 3 kts | 263° |
| 2026-05-06 03:48 | 38.85531 | -77.04143 | 22 ft | 3 kts | 313° |
| 2026-05-06 03:48 | 38.85545 | -77.04154 | 21 ft | 5 kts | 335° |
| 2026-05-06 03:48 | 38.85564 | -77.04166 | 23 ft | 2 kts | 325° |
| 2026-05-06 03:48 | 38.85571 | -77.04173 | 22 ft | 0 kts | 324° |